Time;durP1;ratioP1;P1;durP2;ratioP2;P2;SDS_P1;SDS_P2;PMS_P1;PMS_P2;Temp;Humidity;BMP_temperature;BMP_pressure;BME280_temperature;BME280_humidity;BME280_pressure;Samples;Min_cycle;Max_cycle;Signal;HPM_P1;HPM_P2
2022/07/21 00:00:41;;;;;;;5.68;0.90;;;;;;;;;;5069825;28;20020;-65
2022/07/21 00:03:07;;;;;;;2.13;0.70;;;;;;;;;;5091935;28;20027;-65
2022/07/21 00:05:32;;;;;;;3.25;0.63;;;;;;;;;;5089656;28;20039;-65
2022/07/21 00:07:57;;;;;;;1.88;0.60;;;;;;;;;;5090803;28;20028;-65
2022/07/21 00:10:23;;;;;;;4.05;0.90;;;;;;;;;;5087757;28;20509;-65
2022/07/21 00:12:49;;;;;;;2.17;0.50;;;;;;;;;;5089517;28;20039;-65
2022/07/21 00:15:15;;;;;;;2.50;0.80;;;;;;;;;;5087918;28;20021;-65
2022/07/21 00:17:40;;;;;;;2.97;0.50;;;;;;;;;;5072491;28;20016;-65
2022/07/21 00:20:06;;;;;;;2.40;0.63;;;;;;;;;;5091003;28;20469;-65
2022/07/21 00:22:32;;;;;;;3.28;0.57;;;;;;;;;;5070691;28;20044;-65
2022/07/21 00:24:58;;;;;;;1.65;0.45;;;;;;;;;;5088865;28;20020;-65
2022/07/21 00:27:23;;;;;;;2.67;0.70;;;;;;;;;;5092257;28;20023;-65
2022/07/21 00:29:49;;;;;;;1.42;0.60;;;;;;;;;;5097234;28;20031;-65
2022/07/21 00:32:14;;;;;;;3.90;1.40;;;;;;;;;;5091741;28;20649;-65
2022/07/21 00:34:39;;;;;;;8.55;2.45;;;;;;;;;;5090395;28;20024;-65
2022/07/21 00:37:05;;;;;;;8.75;4.13;;;;;;;;;;5089993;28;20031;-65
2022/07/21 00:39:30;;;;;;;10.63;4.65;;;;;;;;;;5096231;28;20023;-65
2022/07/21 00:41:55;;;;;;;10.75;5.20;;;;;;;;;;5090844;28;20032;-64
2022/07/21 00:44:21;;;;;;;11.32;5.95;;;;;;;;;;5091624;28;20020;-65
2022/07/21 00:46:47;;;;;;;11.30;7.03;;;;;;;;;;5092162;28;20047;-65
2022/07/21 00:49:12;;;;;;;11.80;6.63;;;;;;;;;;5084063;28;20044;-65
2022/07/21 00:51:37;;;;;;;16.75;7.07;;;;;;;;;;5100407;28;20059;-65
2022/07/21 00:54:02;;;;;;;11.88;6.70;;;;;;;;;;5079446;28;20480;-65
2022/07/21 00:56:28;;;;;;;14.82;7.47;;;;;;;;;;5090833;28;20119;-65
2022/07/21 00:58:53;;;;;;;14.02;7.63;;;;;;;;;;5089448;28;20062;-65
2022/07/21 01:01:18;;;;;;;12.18;7.15;;;;;;;;;;5091198;28;20020;-65
2022/07/21 01:03:43;;;;;;;14.20;8.63;;;;;;;;;;5090774;28;20253;-65
2022/07/21 01:06:09;;;;;;;11.60;7.78;;;;;;;;;;5089702;28;20107;-65
2022/07/21 01:08:34;;;;;;;11.95;7.75;;;;;;;;;;5085867;28;20065;-65
2022/07/21 01:11:00;;;;;;;17.02;7.60;;;;;;;;;;5084592;28;20102;-65
2022/07/21 01:13:25;;;;;;;15.60;8.23;;;;;;;;;;5075627;28;20154;-63
2022/07/21 01:15:50;;;;;;;13.75;7.85;;;;;;;;;;5095022;28;20024;-65
2022/07/21 01:18:16;;;;;;;11.23;7.38;;;;;;;;;;5094861;28;20384;-65
2022/07/21 01:20:44;;;;;;;12.57;7.80;;;;;;;;;;5089584;28;20051;-65
2022/07/21 01:23:09;;;;;;;11.23;7.88;;;;;;;;;;5093200;28;20028;-65
2022/07/21 01:25:35;;;;;;;11.32;7.00;;;;;;;;;;5079015;28;20081;-65
2022/07/21 01:28:00;;;;;;;11.57;7.30;;;;;;;;;;5091768;28;20028;-65
2022/07/21 01:30:25;;;;;;;9.05;6.05;;;;;;;;;;5093628;28;20331;-65
2022/07/21 01:32:51;;;;;;;10.07;6.63;;;;;;;;;;5093303;28;20032;-65
2022/07/21 01:35:16;;;;;;;8.77;6.18;;;;;;;;;;5067503;28;20031;-66
2022/07/21 01:37:43;;;;;;;11.18;6.10;;;;;;;;;;5088652;28;20035;-65
2022/07/21 01:42:55;;;;;;;9.83;5.63;;;;;;;;;;5091244;28;20561;-64
2022/07/21 01:45:22;;;;;;;9.77;6.13;;;;;;;;;;5094839;28;20114;-65
2022/07/21 01:47:47;;;;;;;9.20;5.50;;;;;;;;;;5097268;28;20116;-64
2022/07/21 01:50:12;;;;;;;9.85;6.32;;;;;;;;;;5089653;28;20103;-65
2022/07/21 01:52:38;;;;;;;7.43;5.68;;;;;;;;;;5075540;28;20399;-64
2022/07/21 01:55:03;;;;;;;9.80;5.53;;;;;;;;;;5083770;28;20033;-64
2022/07/21 01:57:29;;;;;;;6.93;5.32;;;;;;;;;;5070392;28;20019;-64
2022/07/21 01:59:54;;;;;;;7.68;5.22;;;;;;;;;;5092609;28;20039;-64
2022/07/21 02:02:21;;;;;;;8.23;5.25;;;;;;;;;;5092730;28;20443;-64
2022/07/21 02:04:47;;;;;;;9.93;5.47;;;;;;;;;;5095177;28;20031;-64
2022/07/21 02:07:12;;;;;;;7.32;4.85;;;;;;;;;;5088592;28;20024;-64
2022/07/21 02:09:37;;;;;;;9.48;5.00;;;;;;;;;;5092692;28;20020;-64
2022/07/21 02:12:03;;;;;;;5.22;4.72;;;;;;;;;;5090587;28;20032;-64
2022/07/21 02:14:28;;;;;;;4.93;4.28;;;;;;;;;;5093702;28;20369;-64
2022/07/21 02:16:53;;;;;;;6.70;4.40;;;;;;;;;;5092636;28;20028;-64
2022/07/21 02:19:19;;;;;;;5.50;4.53;;;;;;;;;;5087566;28;20081;-64
2022/07/21 02:21:44;;;;;;;5.55;4.45;;;;;;;;;;5094983;28;20522;-64
2022/07/21 02:24:09;;;;;;;5.00;4.22;;;;;;;;;;5094035;28;20028;-64
2022/07/21 02:26:34;;;;;;;8.10;5.00;;;;;;;;;;5084904;28;20044;-64
2022/07/21 02:29:00;;;;;;;5.25;4.50;;;;;;;;;;5091761;28;20019;-64
2022/07/21 02:31:25;;;;;;;5.55;4.43;;;;;;;;;;5092427;28;20748;-64
2022/07/21 02:33:50;;;;;;;6.95;3.85;;;;;;;;;;5106095;28;20035;-64
2022/07/21 02:36:16;;;;;;;5.78;4.72;;;;;;;;;;5089955;28;20208;-65
2022/07/21 02:38:41;;;;;;;4.63;4.28;;;;;;;;;;5092376;28;20104;-65
2022/07/21 02:41:06;;;;;;;5.40;4.38;;;;;;;;;;5087234;28;20392;-65
2022/07/21 02:43:31;;;;;;;5.78;3.85;;;;;;;;;;5091393;28;20032;-65
2022/07/21 02:45:57;;;;;;;4.80;3.97;;;;;;;;;;5093973;28;20111;-64
2022/07/21 02:48:22;;;;;;;5.47;3.85;;;;;;;;;;5091185;28;20442;-64
2022/07/21 02:50:47;;;;;;;7.25;4.22;;;;;;;;;;5089836;28;20469;-64
2022/07/21 02:53:14;;;;;;;4.25;3.63;;;;;;;;;;5068844;28;20569;-65
2022/07/21 02:55:40;;;;;;;5.05;4.63;;;;;;;;;;5092316;28;20063;-64
2022/07/21 02:58:13;;;;;;;6.90;4.13;;;;;;;;;;5070463;28;20055;-65
2022/07/21 03:00:40;;;;;;;5.30;3.83;;;;;;;;;;5079551;28;21925;-65
2022/07/21 03:03:05;;;;;;;5.78;4.10;;;;;;;;;;5091887;28;20024;-65
2022/07/21 03:05:31;;;;;;;5.22;3.90;;;;;;;;;;5087649;28;20107;-65
2022/07/21 03:07:56;;;;;;;7.95;4.65;;;;;;;;;;5091297;28;20481;-65
2022/07/21 03:10:22;;;;;;;6.72;4.30;;;;;;;;;;5090118;28;20030;-65
2022/07/21 03:12:47;;;;;;;5.32;4.55;;;;;;;;;;5072768;28;20028;-63
2022/07/21 03:15:12;;;;;;;9.70;6.95;;;;;;;;;;5078615;28;20048;-65
2022/07/21 03:17:38;;;;;;;5.43;4.90;;;;;;;;;;5089383;28;20032;-65
2022/07/21 03:20:04;;;;;;;7.10;4.65;;;;;;;;;;5081718;28;20619;-65
2022/07/21 03:22:29;;;;;;;4.45;4.05;;;;;;;;;;5096220;28;20054;-65
2022/07/21 03:24:54;;;;;;;5.05;4.55;;;;;;;;;;5095693;28;20024;-64
2022/07/21 03:27:19;;;;;;;5.85;3.85;;;;;;;;;;5074280;28;20059;-65
2022/07/21 03:29:45;;;;;;;5.50;4.10;;;;;;;;;;5090043;28;20035;-65
2022/07/21 03:32:10;;;;;;;8.88;4.20;;;;;;;;;;5087421;28;20115;-63
2022/07/21 03:34:35;;;;;;;9.18;5.28;;;;;;;;;;5091293;28;20027;-65
2022/07/21 03:37:00;;;;;;;6.22;5.07;;;;;;;;;;5093105;28;20097;-65
2022/07/21 03:39:26;;;;;;;6.32;4.88;;;;;;;;;;5093449;28;20024;-65
2022/07/21 03:41:51;;;;;;;10.90;5.60;;;;;;;;;;5083943;28;20025;-64
2022/07/21 03:44:16;;;;;;;6.95;5.40;;;;;;;;;;5082659;28;20085;-65
2022/07/21 03:46:41;;;;;;;6.88;5.20;;;;;;;;;;5090833;28;20106;-65
2022/07/21 03:49:07;;;;;;;6.10;5.45;;;;;;;;;;5082973;28;20495;-64
2022/07/21 03:51:32;;;;;;;6.50;5.07;;;;;;;;;;5091523;28;20382;-65
2022/07/21 03:53:59;;;;;;;5.60;5.10;;;;;;;;;;5088691;28;20480;-65
2022/07/21 03:56:24;;;;;;;6.20;5.30;;;;;;;;;;5092096;28;20062;-65
2022/07/21 03:58:49;;;;;;;7.45;4.80;;;;;;;;;;5084468;28;20047;-64
2022/07/21 04:01:14;;;;;;;8.32;5.15;;;;;;;;;;5078649;28;20073;-65
2022/07/21 04:03:40;;;;;;;6.68;4.70;;;;;;;;;;5092608;28;20028;-64
2022/07/21 04:06:10;;;;;;;5.55;4.85;;;;;;;;;;5086215;28;20021;-65
2022/07/21 04:08:35;;;;;;;5.50;4.30;;;;;;;;;;5084295;28;20069;-65
2022/07/21 04:11:00;;;;;;;5.30;4.43;;;;;;;;;;5072139;28;20032;-65
2022/07/21 04:13:27;;;;;;;5.50;4.15;;;;;;;;;;5091826;28;20384;-65
2022/07/21 04:15:52;;;;;;;4.57;4.10;;;;;;;;;;5089456;28;20031;-65
2022/07/21 04:18:17;;;;;;;3.97;3.47;;;;;;;;;;5090062;28;20436;-65
2022/07/21 04:20:43;;;;;;;4.57;3.80;;;;;;;;;;5089196;28;20129;-65
2022/07/21 04:23:08;;;;;;;5.60;3.55;;;;;;;;;;5096477;28;20146;-65
2022/07/21 04:25:33;;;;;;;5.15;3.47;;;;;;;;;;5091957;28;20035;-65
2022/07/21 04:27:58;;;;;;;3.55;2.88;;;;;;;;;;5091187;28;20027;-65
2022/07/21 04:30:24;;;;;;;3.58;3.28;;;;;;;;;;5089240;28;20030;-65
2022/07/21 04:32:49;;;;;;;3.25;2.95;;;;;;;;;;5090251;28;20024;-64
2022/07/21 04:35:15;;;;;;;7.05;3.13;;;;;;;;;;5088037;28;20353;-65
2022/07/21 04:37:40;;;;;;;4.22;3.53;;;;;;;;;;5083324;28;20025;-65
2022/07/21 04:40:06;;;;;;;4.97;3.50;;;;;;;;;;5110050;28;20027;-65
2022/07/21 04:42:32;;;;;;;4.70;3.47;;;;;;;;;;5090449;28;20031;-65
2022/07/21 04:44:57;;;;;;;3.70;3.50;;;;;;;;;;5089884;28;20019;-65
2022/07/21 04:47:22;;;;;;;4.93;3.47;;;;;;;;;;5088088;28;20104;-65
2022/07/21 04:49:48;;;;;;;4.47;3.40;;;;;;;;;;5082887;28;20107;-65
2022/07/21 04:52:13;;;;;;;3.65;3.35;;;;;;;;;;5094541;28;20059;-66
2022/07/21 04:54:38;;;;;;;3.40;3.08;;;;;;;;;;5068860;28;20110;-65
2022/07/21 04:57:05;;;;;;;3.95;3.40;;;;;;;;;;5067749;28;20103;-65
2022/07/21 04:59:31;;;;;;;3.45;3.15;;;;;;;;;;5092902;28;20021;-65
2022/07/21 05:01:56;;;;;;;4.82;3.42;;;;;;;;;;5082359;28;20020;-65
2022/07/21 05:04:21;;;;;;;3.80;2.78;;;;;;;;;;5089085;28;20020;-65
2022/07/21 05:06:47;;;;;;;6.05;3.25;;;;;;;;;;5088413;28;20404;-64
2022/07/21 05:09:12;;;;;;;4.90;3.03;;;;;;;;;;5088182;28;20028;-65
2022/07/21 05:11:37;;;;;;;4.22;3.00;;;;;;;;;;5087606;28;20028;-65
2022/07/21 05:14:04;;;;;;;5.53;3.17;;;;;;;;;;5090904;28;20606;-65
2022/07/21 05:16:29;;;;;;;4.22;3.05;;;;;;;;;;5090225;28;20061;-65
2022/07/21 05:18:54;;;;;;;3.97;3.30;;;;;;;;;;5086718;28;20028;-66
2022/07/21 05:21:20;;;;;;;3.20;2.75;;;;;;;;;;5084311;28;20543;-66
2022/07/21 05:23:45;;;;;;;4.15;3.17;;;;;;;;;;5086106;28;20027;-66
2022/07/21 05:26:12;;;;;;;4.25;2.75;;;;;;;;;;5089528;28;20071;-65
2022/07/21 05:28:37;;;;;;;5.15;2.88;;;;;;;;;;5086367;28;20039;-64
2022/07/21 05:31:02;;;;;;;3.25;2.95;;;;;;;;;;5084294;28;20394;-65
2022/07/21 05:33:28;;;;;;;4.40;2.90;;;;;;;;;;5099846;28;20022;-65
2022/07/21 05:35:53;;;;;;;4.40;2.72;;;;;;;;;;5081071;28;20031;-66
2022/07/21 05:38:18;;;;;;;3.25;2.53;;;;;;;;;;5072170;28;20035;-65
2022/07/21 05:40:43;;;;;;;4.30;2.90;;;;;;;;;;5100797;28;20483;-66
2022/07/21 05:43:09;;;;;;;6.07;2.70;;;;;;;;;;5072142;28;20029;-65
2022/07/21 05:45:34;;;;;;;4.90;2.95;;;;;;;;;;5071890;28;20028;-65
2022/07/21 05:47:59;;;;;;;3.58;2.70;;;;;;;;;;5088481;28;20025;-65
2022/07/21 05:50:24;;;;;;;2.88;2.67;;;;;;;;;;5081984;28;20056;-65
2022/07/21 05:52:50;;;;;;;3.80;2.63;;;;;;;;;;5078895;28;20380;-65
2022/07/21 05:55:15;;;;;;;4.57;2.70;;;;;;;;;;5089254;28;20016;-66
2022/07/21 05:57:40;;;;;;;5.95;3.13;;;;;;;;;;5090167;28;20024;-65
2022/07/21 06:00:06;;;;;;;4.35;3.10;;;;;;;;;;5094146;28;20073;-67
2022/07/21 06:02:31;;;;;;;3.33;3.03;;;;;;;;;;5071061;28;20055;-65
2022/07/21 06:04:56;;;;;;;4.50;3.70;;;;;;;;;;5095109;28;20042;-65
2022/07/21 06:07:22;;;;;;;3.55;3.17;;;;;;;;;;5089699;28;20027;-66
2022/07/21 06:09:47;;;;;;;5.05;3.42;;;;;;;;;;5104899;28;20028;-65
2022/07/21 06:12:13;;;;;;;5.13;3.50;;;;;;;;;;5098621;28;20073;-66
2022/07/21 06:14:38;;;;;;;4.60;4.10;;;;;;;;;;5076374;28;20067;-65
2022/07/21 06:17:03;;;;;;;4.63;4.22;;;;;;;;;;5090726;28;20479;-66
2022/07/21 06:19:28;;;;;;;5.03;4.10;;;;;;;;;;5066467;28;20020;-67
2022/07/21 06:21:54;;;;;;;4.53;4.10;;;;;;;;;;5090957;28;20086;-66
2022/07/21 06:24:22;;;;;;;7.13;3.85;;;;;;;;;;5082171;28;20029;-65
2022/07/21 06:26:47;;;;;;;5.53;3.80;;;;;;;;;;5057386;28;20495;-65
2022/07/21 06:29:12;;;;;;;4.13;3.72;;;;;;;;;;5063854;28;20024;-68
2022/07/21 06:31:38;;;;;;;4.95;3.78;;;;;;;;;;5087269;28;20507;-66
2022/07/21 06:34:03;;;;;;;4.90;4.05;;;;;;;;;;5077065;28;20028;-66
2022/07/21 06:36:28;;;;;;;5.80;3.97;;;;;;;;;;5089531;28;20016;-65
2022/07/21 06:38:53;;;;;;;4.57;3.53;;;;;;;;;;5089629;28;20020;-66
2022/07/21 06:41:19;;;;;;;5.47;3.83;;;;;;;;;;5093219;28;20046;-66
2022/07/21 06:43:44;;;;;;;7.22;3.90;;;;;;;;;;5094112;28;20110;-66
2022/07/21 06:46:09;;;;;;;7.40;4.35;;;;;;;;;;5079353;28;20475;-65
2022/07/21 06:48:34;;;;;;;6.55;4.70;;;;;;;;;;5088934;28;20046;-66
2022/07/21 06:51:00;;;;;;;8.73;4.75;;;;;;;;;;5068426;28;20106;-66
2022/07/21 06:53:25;;;;;;;6.88;4.82;;;;;;;;;;5078690;28;20024;-66
2022/07/21 06:55:52;;;;;;;6.65;4.50;;;;;;;;;;5083302;28;20380;-66
2022/07/21 06:58:19;;;;;;;6.00;4.10;;;;;;;;;;5092869;28;20016;-66
2022/07/21 07:00:44;;;;;;;5.15;4.50;;;;;;;;;;5078746;28;20047;-66
2022/07/21 07:03:10;;;;;;;6.53;3.88;;;;;;;;;;5088030;28;20842;-66
2022/07/21 07:05:36;;;;;;;4.55;3.15;;;;;;;;;;5072262;28;20028;-66
2022/07/21 07:08:01;;;;;;;4.10;3.63;;;;;;;;;;5085442;28;20028;-66
2022/07/21 07:10:27;;;;;;;4.57;4.18;;;;;;;;;;5087508;28;20760;-66
2022/07/21 07:12:52;;;;;;;5.75;4.45;;;;;;;;;;5081484;28;20028;-67
2022/07/21 07:15:18;;;;;;;7.03;4.30;;;;;;;;;;5088167;28;20012;-66
2022/07/21 07:17:43;;;;;;;5.82;4.68;;;;;;;;;;5091014;28;20024;-66
2022/07/21 07:20:08;;;;;;;6.28;4.68;;;;;;;;;;5086862;28;20028;-65
2022/07/21 07:22:34;;;;;;;5.22;4.63;;;;;;;;;;5092529;28;20087;-66
2022/07/21 07:24:59;;;;;;;7.20;4.93;;;;;;;;;;5086939;28;20039;-65
2022/07/21 07:27:25;;;;;;;5.65;4.30;;;;;;;;;;5081869;28;20032;-65
2022/07/21 07:29:50;;;;;;;5.40;3.75;;;;;;;;;;5088772;28;20020;-65
2022/07/21 07:32:15;;;;;;;4.45;3.67;;;;;;;;;;5092087;28;20024;-65
2022/07/21 07:34:41;;;;;;;4.00;3.70;;;;;;;;;;5087985;28;20032;-65
2022/07/21 07:37:06;;;;;;;4.80;3.83;;;;;;;;;;5083265;28;20063;-65
2022/07/21 07:39:31;;;;;;;3.67;3.03;;;;;;;;;;5074765;28;20020;-65
2022/07/21 07:41:57;;;;;;;5.22;3.58;;;;;;;;;;5074580;28;20028;-65
2022/07/21 07:44:22;;;;;;;4.35;2.67;;;;;;;;;;5092437;28;20016;-65
2022/07/21 07:46:47;;;;;;;2.80;2.60;;;;;;;;;;5092782;28;20069;-64
2022/07/21 07:49:13;;;;;;;5.30;2.53;;;;;;;;;;5088146;28;20495;-65
2022/07/21 07:51:38;;;;;;;2.75;2.53;;;;;;;;;;5091215;28;20503;-65
2022/07/21 07:54:03;;;;;;;4.20;2.70;;;;;;;;;;5074603;28;20042;-64
2022/07/21 07:56:29;;;;;;;4.47;2.60;;;;;;;;;;5092816;28;20016;-64
2022/07/21 07:58:55;;;;;;;2.80;2.53;;;;;;;;;;5095105;28;20019;-65
2022/07/21 08:01:20;;;;;;;4.85;2.67;;;;;;;;;;5094839;28;20016;-66
2022/07/21 08:03:45;;;;;;;2.70;2.13;;;;;;;;;;5113255;28;20023;-65
2022/07/21 08:06:10;;;;;;;5.30;2.60;;;;;;;;;;5107753;28;20096;-65
2022/07/21 08:08:36;;;;;;;2.75;2.22;;;;;;;;;;5089413;28;20052;-65
2022/07/21 08:11:01;;;;;;;3.38;1.88;;;;;;;;;;5094481;28;20034;-65
2022/07/21 08:13:26;;;;;;;2.15;1.45;;;;;;;;;;5083311;28;20078;-65
2022/07/21 08:15:51;;;;;;;2.78;1.40;;;;;;;;;;5072916;28;20431;-65
2022/07/21 08:18:17;;;;;;;2.80;1.45;;;;;;;;;;5084278;28;20016;-65
2022/07/21 08:20:43;;;;;;;1.75;1.63;;;;;;;;;;5087195;28;20114;-66
2022/07/21 08:23:08;;;;;;;2.45;1.63;;;;;;;;;;5091016;28;20437;-66
2022/07/21 08:25:34;;;;;;;3.08;1.65;;;;;;;;;;5081032;28;20061;-65
2022/07/21 08:27:59;;;;;;;1.15;1.05;;;;;;;;;;5074032;28;20102;-65
2022/07/21 08:30:24;;;;;;;1.48;1.38;;;;;;;;;;5090060;28;20028;-66
2022/07/21 08:32:50;;;;;;;1.50;1.33;;;;;;;;;;5104695;28;20028;-66
2022/07/21 08:35:15;;;;;;;1.38;1.27;;;;;;;;;;5091344;28;20054;-66
2022/07/21 08:37:40;;;;;;;1.70;1.33;;;;;;;;;;5090119;28;20020;-65
2022/07/21 08:40:07;;;;;;;1.70;1.60;;;;;;;;;;5089845;28;20077;-65
2022/07/21 08:42:33;;;;;;;1.55;1.20;;;;;;;;;;5102536;28;20104;-65
2022/07/21 08:44:58;;;;;;;1.92;1.50;;;;;;;;;;5073506;28;20487;-65
2022/07/21 08:47:27;;;;;;;2.35;1.30;;;;;;;;;;5091503;28;20035;-65
2022/07/21 08:49:53;;;;;;;2.25;1.40;;;;;;;;;;5088219;28;20031;-67
2022/07/21 08:52:18;;;;;;;1.67;1.58;;;;;;;;;;5087110;28;20016;-66
2022/07/21 08:54:44;;;;;;;1.85;1.40;;;;;;;;;;5090021;28;20502;-66
2022/07/21 08:57:09;;;;;;;1.90;1.67;;;;;;;;;;5072878;28;20495;-66
2022/07/21 08:59:35;;;;;;;2.03;1.70;;;;;;;;;;5090882;28;20026;-66
2022/07/21 09:02:00;;;;;;;4.20;2.10;;;;;;;;;;5090079;28;20024;-67
2022/07/21 09:04:30;;;;;;;2.45;1.90;;;;;;;;;;5101669;28;20051;-67
2022/07/21 09:07:00;;;;;;;3.08;2.30;;;;;;;;;;5087130;28;20016;-67
2022/07/21 09:09:26;;;;;;;2.67;2.45;;;;;;;;;;5086705;28;20118;-67
2022/07/21 09:11:52;;;;;;;4.50;2.40;;;;;;;;;;5086206;28;20024;-67
2022/07/21 09:14:21;;;;;;;2.80;2.60;;;;;;;;;;5092034;28;20034;-65
2022/07/21 09:16:47;;;;;;;7.32;3.00;;;;;;;;;;5082919;28;20091;-67
2022/07/21 09:19:19;;;;;;;2.60;2.20;;;;;;;;;;5086874;28;20028;-67
2022/07/21 09:21:44;;;;;;;2.75;2.55;;;;;;;;;;5088604;28;20068;-66
2022/07/21 09:24:13;;;;;;;4.82;2.90;;;;;;;;;;5089601;28;20059;-67
2022/07/21 09:26:58;;;;;;;3.42;2.83;;;;;;;;;;5084485;28;20031;-67
2022/07/21 09:29:23;;;;;;;3.72;3.05;;;;;;;;;;5094415;28;20028;-67
2022/07/21 09:31:48;;;;;;;3.20;2.90;;;;;;;;;;5085595;28;20036;-67
2022/07/21 09:34:14;;;;;;;3.25;2.90;;;;;;;;;;5107708;28;20110;-67
2022/07/21 09:36:53;;;;;;;3.75;3.13;;;;;;;;;;5084459;28;20022;-67
2022/07/21 09:39:19;;;;;;;5.03;3.42;;;;;;;;;;5095186;28;20102;-67
2022/07/21 09:41:44;;;;;;;3.80;3.08;;;;;;;;;;5089063;28;20106;-67
2022/07/21 09:44:09;;;;;;;3.65;3.30;;;;;;;;;;5094004;28;20028;-65
2022/07/21 09:46:34;;;;;;;3.53;3.15;;;;;;;;;;5087581;28;20035;-66
2022/07/21 09:49:01;;;;;;;7.65;3.55;;;;;;;;;;5091598;28;20023;-66
2022/07/21 09:51:29;;;;;;;3.72;3.42;;;;;;;;;;5091518;28;20074;-65
2022/07/21 09:53:54;;;;;;;5.30;3.80;;;;;;;;;;5078519;28;20361;-67
2022/07/21 09:56:20;;;;;;;6.15;3.97;;;;;;;;;;5058214;28;20023;-66
2022/07/21 09:58:46;;;;;;;4.30;3.03;;;;;;;;;;5083572;28;20471;-66
2022/07/21 10:01:11;;;;;;;4.35;3.85;;;;;;;;;;5080716;28;20372;-66
2022/07/21 10:03:37;;;;;;;3.83;3.03;;;;;;;;;;5088677;28;20036;-67
2022/07/21 10:06:02;;;;;;;4.38;3.97;;;;;;;;;;5091059;28;20476;-67
2022/07/21 10:08:28;;;;;;;4.32;3.75;;;;;;;;;;5082707;28;20028;-67
2022/07/21 10:10:53;;;;;;;4.05;3.50;;;;;;;;;;5076205;28;20024;-67
2022/07/21 10:13:19;;;;;;;3.85;3.50;;;;;;;;;;5093640;28;20375;-67
2022/07/21 10:15:46;;;;;;;6.53;4.82;;;;;;;;;;5085177;28;20357;-67
2022/07/21 10:18:13;;;;;;;5.22;4.25;;;;;;;;;;5078512;28;20561;-67
2022/07/21 10:20:39;;;;;;;5.32;3.97;;;;;;;;;;5087145;28;20121;-67
2022/07/21 10:23:23;;;;;;;6.03;4.22;;;;;;;;;;5092728;28;20115;-67
2022/07/21 10:25:49;;;;;;;4.63;4.22;;;;;;;;;;5087977;28;20016;-67
2022/07/21 10:28:22;;;;;;;4.22;3.83;;;;;;;;;;5082215;28;20016;-67
2022/07/21 10:30:58;;;;;;;4.82;3.58;;;;;;;;;;5085563;28;20467;-67
2022/07/21 10:33:42;;;;;;;4.15;3.85;;;;;;;;;;5074745;28;20024;-67
2022/07/21 10:36:08;;;;;;;4.57;4.18;;;;;;;;;;5057763;28;20419;-67
2022/07/21 10:38:34;;;;;;;4.47;4.05;;;;;;;;;;5093263;28;20162;-67
2022/07/21 10:41:00;;;;;;;4.25;3.90;;;;;;;;;;5090504;28;20027;-67
2022/07/21 10:43:25;;;;;;;4.30;3.90;;;;;;;;;;5093887;28;20051;-68
2022/07/21 10:45:52;;;;;;;4.95;4.45;;;;;;;;;;5092519;28;20093;-67
2022/07/21 10:48:36;;;;;;;4.13;3.83;;;;;;;;;;5092421;28;20032;-67
2022/07/21 10:51:02;;;;;;;5.17;4.57;;;;;;;;;;5069333;28;20058;-67
2022/07/21 10:53:27;;;;;;;4.50;4.13;;;;;;;;;;5088664;28;20123;-65
2022/07/21 10:55:53;;;;;;;4.05;3.75;;;;;;;;;;5093443;28;20449;-67
2022/07/21 10:58:26;;;;;;;4.50;4.07;;;;;;;;;;5098553;28;20011;-67
2022/07/21 11:00:56;;;;;;;4.60;4.18;;;;;;;;;;5098722;28;20016;-67
2022/07/21 11:03:21;;;;;;;4.63;4.22;;;;;;;;;;5089351;28;20020;-59
2022/07/21 11:06:05;;;;;;;4.75;4.32;;;;;;;;;;5085566;28;20516;-60
2022/07/21 11:08:31;;;;;;;4.73;4.43;;;;;;;;;;5093199;28;20099;-60
2022/07/21 11:11:06;;;;;;;5.38;4.90;;;;;;;;;;5089429;28;20108;-59
2022/07/21 11:13:31;;;;;;;;;;;;;;;;;;5093642;28;20157;-60
2022/07/21 11:16:00;;;;;;;5.45;4.53;;;;;;;;;;5091654;28;20009;-60
2022/07/21 11:18:30;;;;;;;4.95;4.32;;;;;;;;;;5087858;28;20039;-59
2022/07/21 11:21:15;;;;;;;6.57;5.82;;;;;;;;;;5092845;28;20691;-59
2022/07/21 11:23:40;;;;;;;4.95;4.53;;;;;;;;;;5081870;28;20190;-59
2022/07/21 11:26:05;;;;;;;4.88;4.47;;;;;;;;;;5092918;28;20554;-61
2022/07/21 11:28:31;;;;;;;5.20;4.80;;;;;;;;;;5097338;28;20023;-58
2022/07/21 11:31:06;;;;;;;4.57;4.28;;;;;;;;;;5077742;28;20047;-59
2022/07/21 11:33:31;;;;;;;5.18;4.68;;;;;;;;;;5091716;28;20096;-59
2022/07/21 11:35:58;;;;;;;5.50;4.72;;;;;;;;;;5092438;28;20440;-61
2022/07/21 11:38:23;;;;;;;5.03;4.53;;;;;;;;;;5098642;28;20133;-59
2022/07/21 11:40:49;;;;;;;5.82;5.28;;;;;;;;;;5084452;28;20107;-60
2022/07/21 11:43:14;;;;;;;4.78;4.38;;;;;;;;;;5089521;28;20039;-59
2022/07/21 11:45:50;;;;;;;5.10;4.65;;;;;;;;;;5092381;28;20024;-59
2022/07/21 11:48:29;;;;;;;5.70;5.28;;;;;;;;;;5083930;28;20078;-61
2022/07/21 11:51:01;;;;;;;6.45;5.68;;;;;;;;;;5088053;28;20023;-59
2022/07/21 11:53:26;;;;;;;6.63;5.85;;;;;;;;;;5086061;28;20476;-59
2022/07/21 11:55:53;;;;;;;6.10;5.47;;;;;;;;;;5089262;28;20035;-59
2022/07/21 11:58:19;;;;;;;7.63;5.60;;;;;;;;;;5087756;28;20103;-59
2022/07/21 12:00:46;;;;;;;5.97;5.35;;;;;;;;;;5086908;28;20162;-59
2022/07/21 12:03:12;;;;;;;6.45;5.30;;;;;;;;;;5087381;28;20383;-59
2022/07/21 12:05:39;;;;;;;5.47;5.00;;;;;;;;;;5086874;28;20024;-59
2022/07/21 12:08:04;;;;;;;7.18;5.40;;;;;;;;;;5083229;28;20028;-60
2022/07/21 12:10:30;;;;;;;6.35;5.75;;;;;;;;;;5082254;28;20028;-61
2022/07/21 12:13:03;;;;;;;8.52;5.53;;;;;;;;;;5073613;28;20039;-61
2022/07/21 12:15:33;;;;;;;6.18;5.57;;;;;;;;;;5079039;28;20024;-60
2022/07/21 12:17:59;;;;;;;6.10;5.60;;;;;;;;;;5084649;28;20023;-61
2022/07/21 12:20:26;;;;;;;6.47;5.68;;;;;;;;;;5079502;28;20031;-61
2022/07/21 12:22:52;;;;;;;8.05;5.93;;;;;;;;;;5079132;28;20052;-61
2022/07/21 12:25:29;;;;;;;6.10;5.22;;;;;;;;;;5074530;28;20056;-60
2022/07/21 12:27:56;;;;;;;6.28;5.22;;;;;;;;;;5082153;28;20028;-60
2022/07/21 12:30:34;;;;;;;6.53;5.93;;;;;;;;;;5083178;28;20040;-60
2022/07/21 12:33:04;;;;;;;5.57;5.13;;;;;;;;;;5079605;28;20028;-60
2022/07/21 12:35:29;;;;;;;5.65;5.25;;;;;;;;;;5082196;28;20016;-60
2022/07/21 12:38:06;;;;;;;5.50;5.10;;;;;;;;;;5075095;28;20141;-60
2022/07/21 12:40:32;;;;;;;7.28;5.60;;;;;;;;;;5070320;28;20038;-60
2022/07/21 12:43:04;;;;;;;6.63;5.95;;;;;;;;;;5076747;28;20028;-60
2022/07/21 12:45:29;;;;;;;6.47;5.50;;;;;;;;;;5080627;28;20138;-60
2022/07/21 12:48:11;;;;;;;5.88;5.22;;;;;;;;;;5078739;28;20033;-61
2022/07/21 12:50:39;;;;;;;6.90;5.20;;;;;;;;;;5101462;28;20142;-61
2022/07/21 12:53:13;;;;;;;6.00;5.40;;;;;;;;;;5087204;28;20035;-61
2022/07/21 12:55:39;;;;;;;5.55;5.05;;;;;;;;;;5088886;28;20024;-61
2022/07/21 12:58:04;;;;;;;5.45;4.85;;;;;;;;;;5090540;28;20035;-60
2022/07/21 13:00:30;;;;;;;5.40;4.93;;;;;;;;;;5091265;28;20103;-61
2022/07/21 13:02:56;;;;;;;5.50;5.13;;;;;;;;;;5088764;28;20039;-61
2022/07/21 13:05:22;;;;;;;5.32;5.00;;;;;;;;;;5090144;28;20059;-61
2022/07/21 13:07:47;;;;;;;4.45;4.10;;;;;;;;;;5091847;28;20060;-61
2022/07/21 13:10:13;;;;;;;4.40;4.10;;;;;;;;;;5094829;28;20028;-61
2022/07/21 13:12:38;;;;;;;4.47;4.18;;;;;;;;;;5093743;28;20020;-61
2022/07/21 13:15:04;;;;;;;4.22;3.78;;;;;;;;;;5076739;28;20468;-59
2022/07/21 13:17:30;;;;;;;4.20;3.90;;;;;;;;;;5086823;28;20024;-60
2022/07/21 13:19:55;;;;;;;4.03;3.72;;;;;;;;;;5089746;28;20069;-60
2022/07/21 13:22:21;;;;;;;4.15;3.85;;;;;;;;;;5074582;28;20072;-60
2022/07/21 13:24:46;;;;;;;3.97;3.67;;;;;;;;;;5086675;28;20112;-61
2022/07/21 13:27:11;;;;;;;4.75;3.75;;;;;;;;;;5092863;28;20031;-61
2022/07/21 13:29:37;;;;;;;3.88;3.58;;;;;;;;;;5091978;28;20078;-61
2022/07/21 13:32:03;;;;;;;4.63;4.32;;;;;;;;;;5095733;28;20464;-60
2022/07/21 13:34:28;;;;;;;4.40;4.10;;;;;;;;;;5088714;28;20081;-60
2022/07/21 13:36:53;;;;;;;3.92;3.70;;;;;;;;;;5084585;28;20552;-60
2022/07/21 13:39:20;;;;;;;4.10;3.80;;;;;;;;;;5087562;28;20025;-61
2022/07/21 13:41:46;;;;;;;4.20;3.90;;;;;;;;;;5093565;28;20024;-61
2022/07/21 13:44:11;;;;;;;4.47;4.13;;;;;;;;;;5075466;28;20369;-61
2022/07/21 13:46:36;;;;;;;4.40;4.00;;;;;;;;;;5090892;28;20082;-61
2022/07/21 13:49:02;;;;;;;4.13;3.80;;;;;;;;;;5089739;28;20063;-61
2022/07/21 13:51:27;;;;;;;4.60;4.30;;;;;;;;;;5090666;28;20584;-61
2022/07/21 13:53:52;;;;;;;4.78;4.25;;;;;;;;;;5088389;28;20035;-61
2022/07/21 13:56:18;;;;;;;4.10;3.67;;;;;;;;;;5073400;28;20031;-61
2022/07/21 13:58:43;;;;;;;4.30;4.00;;;;;;;;;;5091873;28;20025;-61
2022/07/21 14:01:09;;;;;;;4.32;4.03;;;;;;;;;;5085176;28;20016;-61
2022/07/21 14:03:36;;;;;;;4.30;4.00;;;;;;;;;;5090839;28;20028;-61
2022/07/21 14:06:02;;;;;;;4.45;4.18;;;;;;;;;;5085029;28;20024;-61
2022/07/21 14:08:27;;;;;;;4.40;4.00;;;;;;;;;;5091636;28;20051;-61
2022/07/21 14:10:52;;;;;;;4.20;3.90;;;;;;;;;;5089269;28;20036;-61
2022/07/21 14:13:18;;;;;;;4.65;4.35;;;;;;;;;;5084155;28;20028;-61
2022/07/21 14:15:43;;;;;;;4.00;3.72;;;;;;;;;;5082583;28;20116;-61
2022/07/21 14:18:08;;;;;;;3.93;3.63;;;;;;;;;;5090916;28;20012;-60
2022/07/21 14:20:34;;;;;;;3.55;3.35;;;;;;;;;;5087119;28;20365;-60
2022/07/21 14:22:59;;;;;;;3.67;3.42;;;;;;;;;;5085440;28;20032;-61
2022/07/21 14:25:25;;;;;;;3.53;3.27;;;;;;;;;;5089858;28;20111;-61
2022/07/21 14:27:54;;;;;;;3.65;3.42;;;;;;;;;;5092932;28;20355;-61
2022/07/21 14:30:20;;;;;;;3.55;3.25;;;;;;;;;;5094102;28;20047;-61
2022/07/21 14:32:45;;;;;;;3.25;3.15;;;;;;;;;;5090767;28;20078;-61
2022/07/21 14:35:11;;;;;;;4.40;3.20;;;;;;;;;;5080065;28;20025;-61
2022/07/21 14:37:37;;;;;;;3.65;3.40;;;;;;;;;;5091985;28;20047;-62
2022/07/21 14:40:03;;;;;;;3.50;3.30;;;;;;;;;;5081359;28;20063;-62